Time;durP1;ratioP1;P1;durP2;ratioP2;P2;SDS_P1;SDS_P2;PMS_P1;PMS_P2;Temp;Humidity;BMP_temperature;BMP_pressure;BME280_temperature;BME280_humidity;BME280_pressure;Samples;Min_cycle;Max_cycle;Signal;HPM_P1;HPM_P2
2022/08/01 00:00:51;;;;;;;6.15;2.80;;;;;;;20.77;61.09;147363.66;1763123;81;21039;-55
2022/08/01 00:03:18;;;;;;;6.40;3.10;;;;;;;20.75;61.16;147358.59;1702348;84;21103;-55
2022/08/01 00:05:45;;;;;;;6.08;3.10;;;;;;;20.72;61.21;147352.28;1731360;83;21032;-55
2022/08/01 00:08:12;;;;;;;8.93;3.30;;;;;;;20.69;61.49;147344.70;1767959;81;21067;-55
2022/08/01 00:10:39;;;;;;;6.95;3.12;;;;;;;20.66;61.64;147337.12;1702220;84;21081;-54
2022/08/01 00:13:06;;;;;;;6.80;3.75;;;;;;;20.65;61.83;147333.31;1767907;81;21095;-54
2022/08/01 00:15:33;;;;;;;6.28;3.65;;;;;;;20.60;61.98;147321.94;1767956;81;21034;-53
2022/08/01 00:18:00;;;;;;;6.37;3.12;;;;;;;20.53;62.43;147305.48;1702189;84;21040;-53
2022/08/01 00:23:24;;;;;;;6.37;3.12;;;;;;;20.39;63.21;147270.09;1752977;82;21642;-53
2022/08/01 00:25:52;;;;;;;6.30;3.70;;;;;;;20.32;63.53;147252.39;1702276;84;21023;-54
2022/08/01 00:28:19;;;;;;;5.85;3.17;;;;;;;20.26;63.81;147238.50;1754606;82;21508;-54
2022/08/01 00:30:46;;;;;;;4.53;2.72;;;;;;;20.20;64.28;147222.06;1754500;82;21043;-55
2022/08/01 00:33:13;;;;;;;10.30;4.03;;;;;;;20.16;64.46;147214.48;1754729;82;21055;-55
2022/08/01 00:35:40;;;;;;;6.75;3.15;;;;;;;20.15;64.60;147211.97;1767916;81;21095;-55
2022/08/01 00:38:07;;;;;;;6.85;3.10;;;;;;;20.11;64.92;147200.59;1768166;81;21079;-54
2022/08/01 00:40:35;;;;;;;7.50;3.22;;;;;;;20.06;65.03;147187.97;1702231;84;21063;-54
2022/08/01 00:43:03;;;;;;;9.33;3.02;;;;;;;20.01;65.49;147176.59;1731316;83;21048;-54
2022/08/01 00:45:29;;;;;;;6.83;3.50;;;;;;;19.97;65.57;147166.47;1767899;81;21183;-54
2022/08/01 00:47:56;;;;;;;8.75;2.92;;;;;;;19.94;65.75;147158.91;1702163;84;21055;-55
2022/08/01 00:50:23;;;;;;;7.62;2.87;;;;;;;19.94;66.06;147158.91;1754563;82;21051;-55
2022/08/01 00:52:51;;;;;;;8.53;3.50;;;;;;;19.88;66.33;147143.75;1754479;82;21026;-54
2022/08/01 00:55:20;;;;;;;5.72;2.83;;;;;;;19.86;66.58;147138.69;1767847;81;21039;-53
2022/08/01 00:57:48;;;;;;;4.50;2.75;;;;;;;19.84;66.64;147133.63;1702243;84;21524;-55
2022/08/01 01:00:15;;;;;;;7.20;3.15;;;;;;;19.83;66.82;147131.12;1731487;83;21014;-55
2022/08/01 01:02:43;;;;;;;5.25;2.92;;;;;;;19.81;66.70;147126.06;1768046;81;21515;-53
2022/08/01 01:05:10;;;;;;;8.58;3.12;;;;;;;19.79;67.01;147121.00;1702370;84;21541;-57
2022/08/01 01:08:14;;;;;;;9.90;3.70;;;;;;;19.79;67.63;147121.00;1754793;82;21074;-55
2022/08/01 01:10:56;;;;;;;6.53;3.15;;;;;;;19.78;67.48;147118.50;1753312;82;21528;-55
2022/08/01 01:13:37;;;;;;;6.95;2.92;;;;;;;19.76;67.38;147114.69;1768239;81;21352;-54
2022/08/01 01:16:14;;;;;;;11.03;3.70;;;;;;;19.77;67.26;147117.25;1702344;84;21051;-55
2022/08/01 01:18:55;;;;;;;9.28;3.17;;;;;;;19.79;67.30;147121.00;1753496;82;21035;-55
2022/08/01 01:21:27;;;;;;;6.17;3.22;;;;;;;19.79;67.33;147121.00;1702273;84;21525;-55
2022/08/01 01:24:14;;;;;;;11.78;3.33;;;;;;;19.76;67.54;147113.44;1754123;82;21047;-54
2022/08/01 01:27:10;;;;;;;7.85;3.55;;;;;;;19.73;67.76;147108.37;1754127;82;21048;-56
2022/08/01 01:29:51;;;;;;;6.78;3.55;;;;;;;19.71;67.76;147102.06;1754957;82;21510;-56
2022/08/01 01:32:23;;;;;;;6.62;3.12;;;;;;;19.68;68.16;147094.50;1754585;81;21486;-55
2022/08/01 01:34:52;;;;;;;6.80;3.55;;;;;;;19.62;68.46;147080.56;1702395;84;21066;-54
2022/08/01 01:37:23;;;;;;;8.58;3.27;;;;;;;19.58;68.91;147069.19;1754256;82;21027;-55
2022/08/01 01:39:51;;;;;;;7.78;3.70;;;;;;;19.53;69.13;147057.81;1754484;82;21090;-58
2022/08/01 01:42:20;;;;;;;8.73;3.33;;;;;;;19.49;69.16;147047.73;1754691;82;20968;-56
2022/08/01 01:44:50;;;;;;;6.05;2.87;;;;;;;19.47;69.37;147043.94;1754654;82;21496;-56
2022/08/01 01:47:17;;;;;;;5.80;3.00;;;;;;;19.44;69.63;147036.38;1754677;82;20980;-55
2022/08/01 01:49:47;;;;;;;4.85;2.98;;;;;;;19.41;69.60;147027.50;1754447;82;21047;-56
2022/08/01 01:52:16;;;;;;;9.13;4.42;;;;;;;19.38;69.72;147019.94;1754481;82;21078;-54
2022/08/01 01:54:47;;;;;;;10.35;4.67;;;;;;;19.38;69.71;147019.94;1754684;82;21024;-56
2022/08/01 01:57:16;;;;;;;11.95;6.90;;;;;;;19.36;70.14;147016.17;1702575;84;21023;-55
2022/08/01 01:59:46;;;;;;;10.40;6.83;;;;;;;19.35;70.33;147013.63;1754563;82;21496;-54
2022/08/01 02:02:15;;;;;;;8.05;5.83;;;;;;;19.35;70.53;147012.38;1700929;84;21534;-55
2022/08/01 02:04:46;;;;;;;10.60;4.62;;;;;;;19.36;70.72;147014.88;1705441;84;21056;-55
2022/08/01 02:07:18;;;;;;;8.53;3.30;;;;;;;19.38;71.00;147019.94;1725595;83;21016;-54
2022/08/01 02:09:47;;;;;;;10.55;5.35;;;;;;;19.39;71.20;147022.48;1704946;84;21542;-53
2022/08/01 02:12:17;;;;;;;11.10;5.65;;;;;;;19.36;71.09;147014.88;1732863;83;21055;-54
2022/08/01 02:14:46;;;;;;;9.78;4.80;;;;;;;19.34;71.32;147009.86;1692450;85;21023;-54
2022/08/01 02:17:16;;;;;;;9.83;4.92;;;;;;;19.29;71.58;146999.75;1700711;83;21518;-56
2022/08/01 02:19:43;;;;;;;11.15;4.72;;;;;;;19.26;71.90;146990.92;1705364;84;21021;-54
2022/08/01 02:22:33;;;;;;;8.58;3.95;;;;;;;19.21;72.02;146978.25;1732827;83;21055;-54
2022/08/01 02:25:05;;;;;;;9.38;3.85;;;;;;;19.18;72.25;146970.69;1704768;84;21045;-54
2022/08/01 02:28:01;;;;;;;8.13;3.87;;;;;;;19.15;72.14;146964.38;1709461;83;21552;-55
2022/08/01 02:30:35;;;;;;;9.03;3.65;;;;;;;19.17;72.29;146969.44;1661972;86;21101;-54
2022/08/01 02:33:10;;;;;;;6.15;3.62;;;;;;;19.18;72.36;146971.94;1714081;83;21019;-54
2022/08/01 02:35:41;;;;;;;7.80;4.08;;;;;;;19.17;72.34;146968.19;1705390;84;21049;-54
2022/08/01 02:38:11;;;;;;;7.53;3.42;;;;;;;19.15;72.44;146964.38;1733005;83;21512;-54
2022/08/01 02:40:43;;;;;;;6.03;3.25;;;;;;;19.17;72.17;146969.44;1692265;84;21121;-54
2022/08/01 02:43:12;;;;;;;8.95;3.60;;;;;;;19.19;72.17;146974.50;1725387;83;21051;-54
2022/08/01 02:45:43;;;;;;;9.58;4.20;;;;;;;19.19;72.21;146974.50;1692359;85;21040;-55
2022/08/01 02:48:13;;;;;;;9.17;5.00;;;;;;;19.18;72.19;146971.94;1725415;83;21506;-54
2022/08/01 02:50:44;;;;;;;9.18;4.12;;;;;;;19.18;72.12;146971.94;1705334;84;21037;-55
2022/08/01 02:53:13;;;;;;;7.67;3.55;;;;;;;19.20;71.13;146977.00;1688168;85;21462;-54
2022/08/01 02:55:42;;;;;;;6.12;3.60;;;;;;;19.25;70.77;146989.63;1724975;83;21020;-55
2022/08/01 02:58:12;;;;;;;5.08;3.30;;;;;;;19.30;70.70;147002.25;1692343;85;21536;-55
2022/08/01 03:00:42;;;;;;;10.82;3.42;;;;;;;19.34;69.19;147011.11;1700335;83;21043;-55
2022/08/01 03:03:10;;;;;;;7.28;3.15;;;;;;;19.42;69.09;147030.05;1697871;84;21572;-55
2022/08/01 03:05:39;;;;;;;9.75;3.70;;;;;;;19.49;68.51;147049.00;1754947;81;21075;-55
2022/08/01 03:08:10;;;;;;;9.38;3.62;;;;;;;19.54;67.84;147060.38;1705337;84;21578;-54
2022/08/01 03:10:40;;;;;;;13.08;3.08;;;;;;;19.58;68.33;147069.19;1763314;81;21027;-55
2022/08/01 03:13:08;;;;;;;8.15;3.35;;;;;;;19.60;67.85;147075.50;1705490;84;21009;-55
2022/08/01 03:15:39;;;;;;;8.05;3.40;;;;;;;19.64;68.04;147084.31;1763369;81;21066;-55
2022/08/01 03:18:09;;;;;;;9.65;3.42;;;;;;;19.65;68.41;147088.13;1705690;84;21047;-56
2022/08/01 03:20:36;;;;;;;5.50;3.02;;;;;;;19.65;68.41;147088.13;1763344;81;20996;-55
2022/08/01 03:23:07;;;;;;;6.10;3.47;;;;;;;19.66;67.68;147090.64;1679465;84;21514;-54
2022/08/01 03:25:38;;;;;;;6.47;3.08;;;;;;;19.66;67.69;147089.37;1763576;81;20995;-54
2022/08/01 03:28:07;;;;;;;6.40;3.67;;;;;;;19.67;67.54;147093.23;1705721;84;21043;-54
2022/08/01 03:30:37;;;;;;;5.58;3.02;;;;;;;19.64;67.20;147085.63;1763328;81;21039;-55
2022/08/01 03:33:04;;;;;;;5.35;2.87;;;;;;;19.68;65.18;147095.75;1705334;84;21582;-55
2022/08/01 03:35:39;;;;;;;5.10;2.83;;;;;;;19.74;65.02;147109.63;1763189;81;21502;-55
2022/08/01 03:38:10;;;;;;;5.40;2.92;;;;;;;19.79;64.37;147122.25;1705232;84;21088;-55
2022/08/01 03:40:44;;;;;;;8.63;2.70;;;;;;;19.82;64.05;147128.56;1763590;81;21069;-54
2022/08/01 03:43:19;;;;;;;6.53;2.37;;;;;;;19.85;63.65;147136.19;1705109;84;21032;-54
2022/08/01 03:45:51;;;;;;;5.28;2.52;;;;;;;19.88;63.33;147143.75;1763361;81;21011;-54
2022/08/01 03:48:22;;;;;;;10.90;2.77;;;;;;;19.91;63.10;147151.33;1705257;84;21578;-54
2022/08/01 03:50:52;;;;;;;6.65;3.17;;;;;;;19.92;62.53;147153.83;1763493;81;21113;-55
2022/08/01 03:53:26;;;;;;;4.95;2.55;;;;;;;19.94;62.47;147158.91;1705233;84;21059;-55
2022/08/01 03:55:54;;;;;;;8.33;2.98;;;;;;;19.95;62.13;147162.70;1763405;81;21524;-55
2022/08/01 03:58:22;;;;;;;6.40;2.80;;;;;;;19.96;61.70;147163.97;1705204;84;21381;-53
2022/08/01 04:00:49;;;;;;;7.08;2.72;;;;;;;19.98;61.60;147169.02;1763334;81;21089;-53
2022/08/01 04:03:16;;;;;;;6.90;2.65;;;;;;;20.03;61.60;147181.66;1704174;84;21114;-54
2022/08/01 04:05:43;;;;;;;5.85;2.80;;;;;;;20.03;61.46;147181.66;1754573;82;21537;-53
2022/08/01 04:08:10;;;;;;;4.92;2.50;;;;;;;20.06;61.12;147189.22;1754529;82;21521;-54
2022/08/01 04:10:38;;;;;;;7.45;2.85;;;;;;;20.09;60.80;147195.53;1754503;82;21031;-54
2022/08/01 04:13:05;;;;;;;5.87;2.62;;;;;;;20.11;61.05;147200.59;1754473;82;21549;-54
2022/08/01 04:15:33;;;;;;;5.33;2.50;;;;;;;20.14;60.61;147209.42;1754573;82;21600;-55
2022/08/01 04:18:00;;;;;;;6.05;2.30;;;;;;;20.18;60.10;147218.30;1754574;82;21040;-56
2022/08/01 04:20:27;;;;;;;5.12;2.50;;;;;;;20.24;59.79;147232.19;1754694;82;21521;-56
2022/08/01 04:22:54;;;;;;;8.18;2.85;;;;;;;20.29;59.20;147244.81;1754737;82;21059;-54
2022/08/01 04:25:34;;;;;;;10.38;3.05;;;;;;;20.36;59.53;147262.52;1767933;81;21070;-57
2022/08/01 04:28:07;;;;;;;8.38;3.02;;;;;;;20.41;58.90;147275.16;1768296;81;21011;-54
2022/08/01 04:30:36;;;;;;;9.93;2.40;;;;;;;20.44;58.64;147281.47;1702292;84;21087;-56
2022/08/01 04:33:06;;;;;;;9.68;2.58;;;;;;;20.49;58.70;147295.36;1754735;82;21051;-54
2022/08/01 04:35:34;;;;;;;4.95;2.40;;;;;;;20.54;57.89;147308.05;1731634;83;21036;-54
2022/08/01 04:38:03;;;;;;;11.70;2.60;;;;;;;20.61;57.34;147324.48;1768267;81;21499;-54
2022/08/01 04:40:30;;;;;;;8.73;2.65;;;;;;;20.70;57.12;147347.20;1702501;83;21504;-54
2022/08/01 04:42:57;;;;;;;6.55;2.00;;;;;;;20.77;56.99;147363.66;1754475;82;21511;-54
2022/08/01 04:45:25;;;;;;;6.65;2.30;;;;;;;20.82;56.54;147376.30;1768039;81;21019;-54
2022/08/01 04:47:52;;;;;;;5.95;2.33;;;;;;;20.84;56.21;147381.36;1767867;81;21078;-54
2022/08/01 04:50:25;;;;;;;5.10;2.37;;;;;;;20.89;55.79;147394.00;1767922;81;21083;-54
2022/08/01 04:52:49;;;;;;;8.95;2.30;;;;;;;20.95;55.72;147409.16;1766926;81;21492;-53
2022/08/01 04:55:16;;;;;;;6.40;2.42;;;;;;;21.05;55.19;147431.92;1702252;84;21028;-54
2022/08/01 04:57:46;;;;;;;7.20;3.27;;;;;;;21.09;54.55;147443.31;1731302;83;21106;-55
2022/08/01 05:00:16;;;;;;;7.67;2.58;;;;;;;21.18;54.45;147466.03;1768188;81;20999;-55
2022/08/01 05:02:43;;;;;;;10.28;3.72;;;;;;;21.29;53.93;147492.56;1702091;83;21083;-55
2022/08/01 05:05:10;;;;;;;10.90;3.20;;;;;;;21.36;53.60;147510.28;1754481;82;21047;-55
2022/08/01 05:07:37;;;;;;;7.60;3.22;;;;;;;21.42;53.41;147525.53;1754470;82;21012;-55
2022/08/01 05:10:06;;;;;;;8.03;2.85;;;;;;;21.51;52.97;147545.75;1767936;81;21032;-54
2022/08/01 05:12:33;;;;;;;6.42;2.35;;;;;;;21.56;52.86;147558.41;1702126;84;21547;-54
2022/08/01 05:15:01;;;;;;;6.58;2.22;;;;;;;21.57;52.31;147560.91;1754671;82;21043;-54
2022/08/01 05:17:29;;;;;;;6.53;2.37;;;;;;;21.54;52.10;147553.33;1767824;81;21070;-54
2022/08/01 05:19:55;;;;;;;5.87;2.20;;;;;;;21.55;52.80;147555.84;1702258;84;21528;-55
2022/08/01 05:22:24;;;;;;;5.85;2.35;;;;;;;21.66;52.72;147583.69;1754481;82;21071;-55
2022/08/01 05:24:50;;;;;;;7.28;2.72;;;;;;;21.74;52.20;147602.66;1754709;82;21016;-57
2022/08/01 05:27:17;;;;;;;5.97;2.60;;;;;;;21.72;52.21;147597.59;1754534;82;21099;-55
2022/08/01 05:29:44;;;;;;;5.72;2.30;;;;;;;21.75;51.96;147605.17;1754695;82;21023;-55
2022/08/01 05:32:11;;;;;;;8.13;2.37;;;;;;;21.83;52.21;147626.70;1702153;84;21059;-55
2022/08/01 05:34:38;;;;;;;7.03;2.27;;;;;;;21.92;52.31;147646.92;1768095;81;21027;-56
2022/08/01 05:37:05;;;;;;;5.78;2.27;;;;;;;22.09;51.85;147689.95;1702222;84;21043;-55
2022/08/01 05:39:32;;;;;;;8.50;2.40;;;;;;;22.47;50.87;147783.63;1754437;82;22048;-54
2022/08/01 05:41:59;;;;;;;5.97;2.15;;;;;;;23.32;48.45;147995.03;1753984;82;21008;-55
2022/08/01 05:44:26;;;;;;;5.97;1.95;;;;;;;24.30;46.60;148237.02;1735617;82;21065;-55
2022/08/01 05:46:53;;;;;;;12.55;2.35;;;;;;;25.15;44.72;148446.16;1737252;82;21091;-55
2022/08/01 05:49:20;;;;;;;6.20;2.47;;;;;;;25.82;43.17;148612.28;1737482;82;21019;-55
2022/08/01 05:51:46;;;;;;;5.28;1.82;;;;;;;26.35;41.85;148744.25;1737225;82;21052;-55
2022/08/01 05:54:13;;;;;;;8.20;2.20;;;;;;;26.60;41.05;148806.47;1737522;82;21037;-56
2022/08/01 05:56:41;;;;;;;10.63;2.80;;;;;;;26.84;40.55;148866.09;1750166;82;21119;-55
2022/08/01 05:59:07;;;;;;;6.20;2.10;;;;;;;27.26;40.27;148970.25;1750403;81;21042;-55
2022/08/01 06:01:34;;;;;;;7.83;2.72;;;;;;;27.82;38.68;149108.69;1750243;81;21043;-55
2022/08/01 06:04:01;;;;;;;6.67;2.20;;;;;;;28.06;37.95;149169.66;1755407;81;21087;-55
2022/08/01 06:06:28;;;;;;;7.85;2.90;;;;;;;28.21;37.33;149206.45;1761136;81;21024;-56
2022/08/01 06:08:55;;;;;;;6.83;3.08;;;;;;;27.51;38.20;149032.45;1761520;81;21528;-56
2022/08/01 06:11:22;;;;;;;4.87;3.08;;;;;;;27.05;39.38;148919.42;1761178;81;21504;-55
2022/08/01 06:13:48;;;;;;;6.30;3.42;;;;;;;27.26;39.11;148971.50;1761311;81;21064;-55
2022/08/01 06:16:16;;;;;;;4.97;3.42;;;;;;;27.06;39.39;148921.94;1761095;81;21016;-56
2022/08/01 06:18:43;;;;;;;5.22;2.33;;;;;;;26.99;40.15;148904.17;1761309;81;21023;-55
2022/08/01 06:21:11;;;;;;;9.28;4.10;;;;;;;27.22;39.55;148960.06;1761106;81;21031;-55
2022/08/01 06:23:38;;;;;;;8.63;3.30;;;;;;;27.38;39.52;148999.47;1761309;81;21106;-56
2022/08/01 06:26:05;;;;;;;7.17;2.70;;;;;;;27.85;39.05;149116.30;1761125;81;21062;-55
2022/08/01 06:28:31;;;;;;;4.97;2.05;;;;;;;28.46;37.89;149268.75;1761359;81;21027;-56
2022/08/01 06:30:59;;;;;;;4.90;2.52;;;;;;;29.14;36.97;149437.80;1761200;81;21450;-56
2022/08/01 06:33:27;;;;;;;4.33;2.17;;;;;;;29.64;35.84;149562.37;1761342;81;21031;-55
2022/08/01 06:35:54;;;;;;;7.00;2.75;;;;;;;29.33;35.62;149483.53;1761341;81;21030;-56
2022/08/01 06:38:21;;;;;;;8.15;2.62;;;;;;;29.03;36.30;149409.81;1761293;81;21035;-57
2022/08/01 06:40:48;;;;;;;5.58;2.10;;;;;;;29.09;36.26;149423.83;1761465;81;20984;-56
2022/08/01 06:43:15;;;;;;;6.83;2.62;;;;;;;29.34;36.08;149486.11;1761352;81;21044;-56
2022/08/01 06:45:42;;;;;;;4.42;2.42;;;;;;;29.47;36.10;149517.88;1761193;81;21094;-56
2022/08/01 06:48:10;;;;;;;6.05;2.40;;;;;;;29.44;36.31;149511.53;1761313;81;21039;-55
2022/08/01 06:50:37;;;;;;;4.50;2.10;;;;;;;29.67;35.81;149567.47;1761291;81;21020;-55
2022/08/01 06:53:04;;;;;;;13.05;5.90;;;;;;;29.82;35.29;149606.91;1761369;81;21528;-55
2022/08/01 06:55:31;;;;;;;6.90;2.80;;;;;;;29.96;35.41;149639.97;1761406;81;20996;-55
2022/08/01 06:57:58;;;;;;;7.62;2.65;;;;;;;30.09;35.19;149673.02;1761241;81;21039;-56
2022/08/01 07:00:26;;;;;;;7.95;2.85;;;;;;;30.16;34.82;149690.83;1761571;81;21019;-55
2022/08/01 07:02:55;;;;;;;7.78;2.65;;;;;;;30.01;34.80;149653.94;1750528;81;21070;-54
2022/08/01 07:05:23;;;;;;;6.70;2.85;;;;;;;29.94;34.67;149636.13;1747714;80;21008;-57
2022/08/01 07:07:50;;;;;;;7.22;2.35;;;;;;;29.63;35.37;149559.81;1752666;81;21526;-54
2022/08/01 07:10:18;;;;;;;13.98;2.77;;;;;;;29.54;35.62;149535.64;1746036;80;21592;-53
2022/08/01 07:12:45;;;;;;;7.47;2.58;;;;;;;29.42;35.97;149506.44;1749052;80;21105;-56
2022/08/01 07:15:12;;;;;;;6.45;2.72;;;;;;;29.68;35.63;149570.03;1756762;80;20976;-54
2022/08/01 07:17:40;;;;;;;10.63;2.83;;;;;;;30.23;34.79;149707.38;1747704;81;21107;-54
2022/08/01 07:20:12;;;;;;;6.40;2.80;;;;;;;30.85;33.96;149862.62;1738164;81;20976;-54
2022/08/01 07:22:39;;;;;;;11.33;2.72;;;;;;;30.96;34.04;149888.06;1713231;82;21195;-55
2022/08/01 07:25:08;;;;;;;6.72;2.25;;;;;;;30.78;34.25;149844.75;1688680;83;21059;-54
2022/08/01 07:27:36;;;;;;;7.87;2.37;;;;;;;30.80;34.16;149848.59;1696266;84;21153;-54
2022/08/01 07:30:04;;;;;;;5.92;2.27;;;;;;;31.07;33.59;149917.34;1692540;84;21481;-54
2022/08/01 07:32:31;;;;;;;7.28;2.30;;;;;;;31.35;33.30;149987.33;1694537;84;21046;-55
2022/08/01 07:34:57;;;;;;;7.05;2.25;;;;;;;31.12;33.13;149928.81;1690143;84;21486;-55
2022/08/01 07:37:24;;;;;;;6.03;2.90;;;;;;;31.36;33.22;149989.84;1693547;84;21091;-53
2022/08/01 07:39:51;;;;;;;12.30;3.52;;;;;;;31.61;32.62;150051.00;1694735;84;21020;-54
2022/08/01 07:42:18;;;;;;;7.78;2.95;;;;;;;31.69;32.34;150070.09;1682837;84;22056;-53
2022/08/01 07:44:44;;;;;;;8.48;2.87;;;;;;;31.81;32.46;150099.39;1684790;84;21095;-55
2022/08/01 07:47:11;;;;;;;6.47;2.90;;;;;;;31.59;32.82;150045.91;1691501;84;21529;-58
2022/08/01 07:49:39;;;;;;;6.85;2.87;;;;;;;31.18;33.31;149942.80;1688471;84;21051;-56
2022/08/01 07:52:06;;;;;;;6.30;2.22;;;;;;;30.80;33.95;149848.59;1692419;84;21508;-55
2022/08/01 07:54:33;;;;;;;8.45;3.22;;;;;;;31.00;33.86;149899.53;1698379;84;21099;-54
2022/08/01 07:57:01;;;;;;;7.03;3.17;;;;;;;31.28;33.69;149969.50;1693345;84;21047;-56
2022/08/01 07:59:28;;;;;;;5.33;2.12;;;;;;;31.49;33.27;150020.45;1696870;84;21067;-54
2022/08/01 08:01:55;;;;;;;8.48;2.85;;;;;;;32.19;32.72;150196.17;1698563;84;21542;-54
2022/08/01 08:04:22;;;;;;;6.97;2.35;;;;;;;32.71;31.67;150324.81;1701995;83;21201;-54
2022/08/01 08:06:48;;;;;;;7.17;2.42;;;;;;;32.75;31.78;150335.03;1712830;83;21024;-54
2022/08/01 08:09:16;;;;;;;5.30;2.42;;;;;;;33.01;31.40;150398.70;1669650;85;21146;-55
2022/08/01 08:11:45;;;;;;;7.85;2.27;;;;;;;33.21;30.90;150448.44;1693118;84;21189;-56
2022/08/01 08:14:12;;;;;;;5.67;2.12;;;;;;;33.44;30.62;150507.03;1672596;85;21029;-56
2022/08/01 08:16:39;;;;;;;7.12;2.00;;;;;;;33.27;30.66;150463.70;1684281;83;21052;-55
2022/08/01 08:19:06;;;;;;;6.60;2.15;;;;;;;32.97;31.04;150389.77;1707424;83;21017;-56
2022/08/01 08:21:33;;;;;;;7.75;4.00;;;;;;;33.23;30.93;150453.55;1697808;83;21008;-57
2022/08/01 08:26:52;;;;;;;4.62;1.98;;;;;;;33.25;31.18;150459.91;1706920;83;21021;-56
2022/08/01 08:29:21;;;;;;;8.65;2.12;;;;;;;33.00;31.26;150396.13;1715178;83;21016;-56
2022/08/01 08:31:49;;;;;;;4.90;2.60;;;;;;;32.27;32.26;150215.27;1703832;83;20996;-56
2022/08/01 08:34:15;;;;;;;8.88;2.15;;;;;;;32.00;32.80;150149.05;1688014;85;21004;-55
2022/08/01 08:36:42;;;;;;;6.87;2.67;;;;;;;32.03;32.75;150154.14;1712546;83;21027;-56
2022/08/01 08:39:09;;;;;;;6.72;2.05;;;;;;;32.15;32.85;150184.70;1710918;83;21054;-56
2022/08/01 08:41:36;;;;;;;8.48;6.35;;;;;;;32.43;32.64;150254.73;1688699;85;21013;-54
2022/08/01 08:44:05;;;;;;;6.08;2.95;;;;;;;32.56;32.35;150286.61;1684592;85;21020;-54
2022/08/01 08:46:33;;;;;;;7.15;2.62;;;;;;;32.53;32.37;150280.25;1686477;85;21639;-54
2022/08/01 08:49:03;;;;;;;21.95;18.67;;;;;;;32.71;32.24;150323.55;1698878;84;21059;-66
2022/08/01 08:51:35;;;;;;;6.25;3.25;;;;;;;32.94;32.24;150382.13;1707643;83;21038;-55
2022/08/01 08:54:07;;;;;;;6.45;2.50;;;;;;;32.63;32.81;150305.72;1720024;83;21953;-54
2022/08/01 08:56:35;;;;;;;5.37;4.00;;;;;;;32.37;32.83;150240.73;1684096;85;21091;-54
2022/08/01 08:59:03;;;;;;;17.37;13.65;;;;;;;32.29;33.06;150219.06;1684800;84;21073;-54
2022/08/01 09:01:34;;;;;;;13.80;11.35;;;;;;;32.00;33.57;150147.78;1672191;85;21064;-54
2022/08/01 09:04:03;;;;;;;8.35;6.35;;;;;;;31.71;34.27;150076.45;1700245;81;21048;-53
2022/08/01 09:06:32;;;;;;;6.67;3.12;;;;;;;31.43;34.81;150005.20;1742095;82;21068;-55
2022/08/01 09:09:01;;;;;;;6.17;2.40;;;;;;;31.51;34.81;150025.55;1758402;80;21054;-57
2022/08/01 09:11:27;;;;;;;6.92;2.45;;;;;;;31.59;34.71;150045.91;1753153;81;21047;-55
2022/08/01 09:14:13;;;;;;;6.67;2.58;;;;;;;30.97;35.32;149890.64;1754642;81;21058;-57
2022/08/01 09:16:43;;;;;;;7.53;2.92;;;;;;;30.47;36.28;149767.17;1750832;81;21071;-56
2022/08/01 09:19:19;;;;;;;16.37;11.05;;;;;;;30.56;36.73;149788.78;1765121;81;21073;-55
2022/08/01 09:22:01;;;;;;;16.70;10.32;;;;;;;30.31;37.02;149727.75;1760000;81;21090;-55
2022/08/01 09:24:30;;;;;;;15.93;7.22;;;;;;;29.78;38.14;149595.47;1753903;81;21007;-54
2022/08/01 09:26:59;;;;;;;9.38;4.00;;;;;;;29.67;38.52;149567.47;1758475;81;21011;-55
2022/08/01 09:29:31;;;;;;;9.15;3.92;;;;;;;29.45;38.79;149512.78;1753156;81;21012;-55
2022/08/01 09:31:59;;;;;;;6.95;3.55;;;;;;;28.79;39.96;149351.33;1754994;81;20967;-54
2022/08/01 09:34:30;;;;;;;6.28;4.12;;;;;;;28.15;41.35;149191.22;1747236;81;21484;-54
2022/08/01 09:37:01;;;;;;;8.88;3.55;;;;;;;27.87;42.12;149122.64;1754240;81;21646;-55
2022/08/01 09:39:37;;;;;;;12.23;3.90;;;;;;;27.79;42.77;149101.03;1752068;80;21100;-54
2022/08/01 09:42:25;;;;;;;9.35;4.72;;;;;;;27.67;42.92;149073.06;1764130;81;21054;-54
2022/08/01 09:44:52;;;;;;;6.05;3.45;;;;;;;27.41;43.50;149007.06;1753476;80;21023;-56
2022/08/01 09:47:20;;;;;;;11.33;5.42;;;;;;;27.44;43.68;149014.67;1757589;81;21521;-56
2022/08/01 09:49:57;;;;;;;7.53;3.50;;;;;;;27.46;43.74;149021.02;1758192;81;21012;-55
2022/08/01 09:52:27;;;;;;;8.93;3.80;;;;;;;27.55;43.85;149041.33;1758008;81;21082;-55
2022/08/01 09:55:06;;;;;;;9.10;3.60;;;;;;;27.46;43.85;149021.02;1754537;80;21088;-55
2022/08/01 09:57:32;;;;;;;9.60;3.70;;;;;;;27.38;44.03;149000.72;1758424;80;21474;-55
2022/08/01 10:00:01;;;;;;;6.45;4.33;;;;;;;27.32;44.33;148984.20;1751488;81;21062;-54
2022/08/01 10:02:37;;;;;;;9.58;3.70;;;;;;;27.26;44.52;148970.25;1753362;80;21018;-54
2022/08/01 10:05:08;;;;;;;6.92;3.77;;;;;;;27.19;44.98;148952.47;1757342;80;21058;-53
2022/08/01 10:07:40;;;;;;;8.43;6.28;;;;;;;27.17;45.14;148947.33;1666770;85;21083;-54
2022/08/01 10:10:14;;;;;;;;;;;;;;;27.23;45.11;148963.91;1726024;83;21000;-54
2022/08/01 10:12:42;;;;;;;7.15;5.08;;;;;;;27.34;45.15;148990.55;1691790;82;20457;-53
2022/08/01 10:15:10;;;;;;;10.10;5.78;;;;;;;27.42;45.42;149010.84;1723607;82;21024;-53
2022/08/01 10:17:41;;;;;;;6.45;3.83;;;;;;;27.54;45.30;149038.81;1720882;83;21024;-53
2022/08/01 10:20:10;;;;;;;6.85;3.65;;;;;;;27.67;45.28;149073.06;1730832;81;21017;-54
2022/08/01 10:22:38;;;;;;;8.25;3.65;;;;;;;27.69;45.29;149078.16;1688145;83;21104;-54
2022/08/01 10:25:06;;;;;;;6.12;3.42;;;;;;;27.83;45.17;149112.47;1674840;83;21523;-53
2022/08/01 10:27:36;;;;;;;10.18;4.03;;;;;;;27.93;45.32;149137.86;1729474;82;20989;-56
2022/08/01 10:30:07;;;;;;;12.43;9.95;;;;;;;28.03;45.27;149160.73;1717035;82;21517;-55
2022/08/01 10:32:36;;;;;;;158.97;129.65;;;;;;;28.01;45.38;149156.95;1715998;83;21023;-54
2022/08/01 10:35:08;;;;;;;14.18;7.45;;;;;;;27.87;45.88;149122.64;1717875;82;21017;-55
2022/08/01 10:37:36;;;;;;;47.08;39.45;;;;;;;27.78;45.99;149099.72;1724077;82;20992;-60
2022/08/01 10:40:05;;;;;;;20.30;16.40;;;;;;;27.70;46.39;149079.41;1698089;84;21071;-58
2022/08/01 10:42:34;;;;;;;22.87;17.73;;;;;;;27.56;46.79;149045.16;1680356;84;21074;-58
2022/08/01 10:45:03;;;;;;;7.20;4.42;;;;;;;27.49;47.19;149027.37;1700494;83;21485;-56
2022/08/01 10:47:44;;;;;;;9.15;4.25;;;;;;;27.54;47.53;149040.06;1695162;83;21068;-56
2022/08/01 10:50:31;;;;;;;8.30;3.65;;;;;;;27.66;47.30;149069.28;1720943;82;21087;-60
2022/08/01 10:53:22;;;;;;;10.23;3.98;;;;;;;27.74;47.26;149088.33;1713393;83;21537;-58
2022/08/01 10:56:00;;;;;;;8.68;4.65;;;;;;;27.79;46.73;149101.03;1720987;82;20971;-56
2022/08/01 10:58:38;;;;;;;7.60;4.42;;;;;;;27.76;47.11;149093.38;1723060;82;21047;-62
2022/08/01 11:01:29;;;;;;;11.18;5.80;;;;;;;27.88;46.96;149123.91;1730251;82;21004;-55
2022/08/01 11:04:07;;;;;;;9.63;5.40;;;;;;;28.03;46.70;149160.73;1734829;82;21087;-59
2022/08/01 11:06:48;;;;;;;8.95;4.10;;;;;;;28.19;45.95;149201.41;1714103;83;21078;-58
2022/08/01 11:09:33;;;;;;;6.08;3.95;;;;;;;28.25;45.44;149215.38;1757805;80;21067;-58
2022/08/01 11:12:11;;;;;;;6.53;4.80;;;;;;;28.06;45.61;149169.66;1756371;81;21489;-59
2022/08/01 11:15:04;;;;;;;343.17;274.75;;;;;;;28.03;45.67;149160.73;1754806;80;21003;-59
2022/08/01 11:17:48;;;;;;;148.30;117.03;;;;;;;28.27;45.55;149221.72;1756385;80;21067;-61
2022/08/01 11:20:20;;;;;;;29.07;22.60;;;;;;;28.57;45.00;149295.41;1758263;80;21457;-59
2022/08/01 11:23:05;;;;;;;;;;;;;;;28.50;45.43;149277.67;1757133;80;20999;-61
2022/08/01 11:25:46;;;;;;;14.90;9.73;;;;;;;28.47;45.68;149270.00;1759622;81;20142;-59
2022/08/01 11:28:25;;;;;;;10.58;7.03;;;;;;;28.47;45.91;149271.31;1762334;80;21043;-59
2022/08/01 11:31:03;;;;;;;11.50;5.70;;;;;;;28.36;46.04;149244.56;1757737;80;21045;-60
2022/08/01 11:33:47;;;;;;;8.05;5.03;;;;;;;28.30;46.39;149229.33;1716070;83;21075;-61
2022/08/01 11:36:17;;;;;;;7.70;4.05;;;;;;;28.14;46.73;149188.70;1755905;81;21102;-60
2022/08/01 11:38:53;;;;;;;7.37;3.90;;;;;;;28.12;46.81;149183.63;1757360;80;21037;-57
2022/08/01 11:41:29;;;;;;;10.70;4.75;;;;;;;28.13;47.29;149187.41;1740996;82;21064;-57
2022/08/01 11:44:10;;;;;;;7.00;3.50;;;;;;;28.25;45.86;149216.63;1743107;82;21032;-59